Infinite Prosperity — 3EUI6 — position and weather

sailwx.info

Track history (hours):
 
Tides and Currents Weather Stations Pressure Air Temp Water Temp Dewpoint Dewpoint Depression Visibility Wind Speed Wind Dir Waves Ship Positions

Infinite Prosperity

Last reported at 2017-Nov-18 10:58 UTC. Time now 2017-Nov-20 00:26 UTC.
Position N 27°26' W 013°50'.

Length 225 m; draft 7 m.

Type: Cargo ship. MMSI: 370060000.

Date/timePositionNaut miles runAvg speedWind from/ knotsBaromVisibWave heightAir tempDewpointWater temp
2017-Nov-18 10:58N 27°26' W 013°50'612.0
2017-Nov-18 10:30N 27°30' W 013°46'611.7
2017-Nov-18 10:00N 27°35' W 013°43'812.0
2017-Nov-18 09:21N 27°42' W 013°38'512.7
2017-Nov-18 08:57N 27°46' W 013°35'613.2
2017-Nov-18 08:30N 27°51' W 013°31'713.0
2017-Nov-18 07:57N 27°57' W 013°27'1412.5
2017-Nov-18 06:49N 28°09' W 013°18'412.5
2017-Nov-18 06:30N 28°11' W 013°15'612.5
2017-Nov-18 06:00N 28°15' W 013°09'612.5
2017-Nov-18 05:30N 28°19' W 013°03'4412.9
2017-Nov-18 02:07N 28°44' W 012°23'  
Track history (hours):
 
Tides and Currents Weather Stations Pressure Air Temp Water Temp Dewpoint Dewpoint Depression Visibility Wind Speed Wind Dir Waves Ship Positions

Infinite Prosperity

Last reported at 2017-Nov-18 10:58 UTC. Time now 2017-Nov-20 00:26 UTC.
Position N 27°26' W 013°50'.

Length 225 m; draft 7 m.

Type: Cargo ship. MMSI: 370060000.

Date/timePositionNaut miles runAvg speedWind from/ knotsBaromVisibWave heightAir tempDewpointWater temp
2017-Nov-18 10:58N 27°26' W 013°50'612.0
2017-Nov-18 10:30N 27°30' W 013°46'611.7
2017-Nov-18 10:00N 27°35' W 013°43'812.0
2017-Nov-18 09:21N 27°42' W 013°38'512.7
2017-Nov-18 08:57N 27°46' W 013°35'613.2
2017-Nov-18 08:30N 27°51' W 013°31'713.0
2017-Nov-18 07:57N 27°57' W 013°27'1412.5
2017-Nov-18 06:49N 28°09' W 013°18'412.5
2017-Nov-18 06:30N 28°11' W 013°15'612.5
2017-Nov-18 06:00N 28°15' W 013°09'612.5
2017-Nov-18 05:30N 28°19' W 013°03'4412.9
2017-Nov-18 02:07N 28°44' W 012°23'  

Dump ship's entire track history